Time;durP1;ratioP1;P1;durP2;ratioP2;P2;SDS_P1;SDS_P2;PMS_P1;PMS_P2;Temp;Humidity;BMP_temperature;BMP_pressure;BME280_temperature;BME280_humidity;BME280_pressure;Samples;Min_cycle;Max_cycle;Signal;HPM_P1;HPM_P2
2021/08/14 00:01:38;21094.00;0.07;37.16;0.00;0.00;0.62;;;;;25.20;1.00;;;;;;2284639;60;1191;-85
2021/08/14 00:04:05;17261.00;0.06;30.53;0.00;0.00;0.62;;;;;25.20;1.00;;;;;;2284625;60;1446;-85
2021/08/14 00:06:32;20813.00;0.07;36.68;0.00;0.00;0.62;;;;;25.00;1.00;;;;;;2284656;60;1232;-85
2021/08/14 00:08:59;124087.00;0.41;215.13;0.00;0.00;0.62;;;;;24.90;1.00;;;;;;2283567;60;1093;-85
2021/08/14 00:11:26;244751.00;0.82;422.92;54358.00;0.18;94.72;;;;;25.10;1.00;;;;;;2285128;60;1120;-85
2021/08/14 00:13:54;23882.00;0.08;41.99;0.00;0.00;0.62;;;;;25.00;1.00;;;;;;2284975;60;1933;-85
2021/08/14 00:16:21;172837.00;0.58;299.15;46072.00;0.15;80.39;;;;;24.90;1.00;;;;;;2285169;60;1079;-85
2021/08/14 00:18:48;46078.00;0.15;80.40;0.00;0.00;0.62;;;;;24.80;1.00;;;;;;2280532;60;1192;-85
2021/08/14 00:21:15;37253.00;0.12;65.14;0.00;0.00;0.62;;;;;24.70;1.00;;;;;;2284708;60;1097;-85
2021/08/14 00:23:41;0.00;0.00;0.62;0.00;0.00;0.62;;;;;24.80;1.00;;;;;;2285311;60;1425;-85
2021/08/14 00:26:08;135301.00;0.45;234.47;0.00;0.00;0.62;;;;;25.00;1.00;;;;;;2285078;60;1056;-84
2021/08/14 00:28:36;0.00;0.00;0.62;0.00;0.00;0.62;;;;;25.10;1.00;;;;;;2285375;60;1061;-85
2021/08/14 00:31:04;437420.00;1.46;754.15;126794.00;0.42;219.80;;;;;25.10;1.00;;;;;;2285107;60;1162;-85
2021/08/14 00:33:31;31590.00;0.11;55.34;0.00;0.00;0.62;;;;;25.10;1.00;;;;;;2285566;60;2013;-84
2021/08/14 00:35:58;126605.00;0.42;219.47;0.00;0.00;0.62;;;;;25.00;1.00;;;;;;2278402;60;1295;-85
2021/08/14 00:38:25;6986.00;0.02;12.73;0.00;0.00;0.62;;;;;25.00;1.00;;;;;;2286157;60;1109;-85
2021/08/14 00:40:52;0.00;0.00;0.62;0.00;0.00;0.62;;;;;25.10;1.00;;;;;;2282595;60;1179;-85
2021/08/14 00:43:19;72515.00;0.24;126.11;0.00;0.00;0.62;;;;;25.10;1.00;;;;;;2281964;60;1282;-85
2021/08/14 00:45:46;4861.00;0.02;9.04;0.00;0.00;0.62;;;;;24.90;1.00;;;;;;2281023;60;1139;-85
2021/08/14 00:48:14;0.00;0.00;0.62;0.00;0.00;0.62;;;;;25.00;1.00;;;;;;2277607;60;1308;-85
2021/08/14 00:50:41;0.00;0.00;0.62;0.00;0.00;0.62;;;;;25.00;1.00;;;;;;2285310;60;1179;-85
2021/08/14 00:53:08;10879.00;0.04;19.47;0.00;0.00;0.62;;;;;25.00;1.00;;;;;;2285364;60;1942;-85
2021/08/14 00:55:35;232738.00;0.78;402.26;29171.00;0.10;51.15;;;;;24.90;1.00;;;;;;2285386;60;1132;-85
2021/08/14 00:58:02;0.00;0.00;0.62;0.00;0.00;0.62;;;;;24.90;1.00;;;;;;2285251;60;1231;-85
2021/08/14 01:00:29;81309.00;0.27;141.30;0.00;0.00;0.62;;;;;24.90;1.00;;;;;;2285428;60;1171;-85
2021/08/14 01:02:57;26227.00;0.09;46.05;0.00;0.00;0.62;;;;;24.80;1.00;;;;;;2284963;60;1292;-84
2021/08/14 01:05:26;239332.00;0.80;413.60;68698.00;0.23;119.51;;;;;24.70;1.00;;;;;;2281504;60;1301;-85
2021/08/14 01:07:53;105442.00;0.35;182.96;0.00;0.00;0.62;;;;;24.50;1.00;;;;;;2289002;60;1151;-83
2021/08/14 01:10:21;273792.00;0.91;472.86;66788.00;0.22;116.21;;;;;24.40;1.00;;;;;;2289003;60;1079;-84
2021/08/14 01:12:49;435528.00;1.45;750.89;157643.00;0.53;272.98;;;;;24.20;1.00;;;;;;2278225;60;2006;-84
2021/08/14 01:15:16;103522.00;0.35;179.65;0.00;0.00;0.62;;;;;24.20;1.00;;;;;;2285729;60;1151;-85
2021/08/14 01:17:43;69053.00;0.23;120.12;0.00;0.00;0.62;;;;;24.20;1.00;;;;;;2281256;60;1251;-85
2021/08/14 01:20:11;49083.00;0.16;85.60;0.00;0.00;0.62;;;;;24.40;1.00;;;;;;2277599;60;994;-85
2021/08/14 01:22:39;0.00;0.00;0.62;0.00;0.00;0.62;;;;;24.50;1.00;;;;;;2278033;60;1053;-85
2021/08/14 01:25:08;195708.00;0.65;338.54;18084.00;0.06;31.95;;;;;24.00;1.00;;;;;;2285034;60;1274;-84
2021/08/14 01:27:37;44373.00;0.15;77.45;0.00;0.00;0.62;;;;;23.60;1.10;;;;;;2277790;60;1255;-84
2021/08/14 01:30:04;224732.00;0.75;388.49;0.00;0.00;0.62;;;;;23.60;1.40;;;;;;2280846;60;1250;-85
2021/08/14 01:32:31;85255.00;0.28;148.11;0.00;0.00;0.62;;;;;24.00;1.00;;;;;;2277800;60;1160;-85
2021/08/14 01:34:59;174991.00;0.58;302.86;12447.00;0.04;22.19;;;;;24.00;1.00;;;;;;2285178;60;1996;-85
2021/08/14 01:37:27;422641.00;1.41;728.73;103877.00;0.35;180.26;;;;;23.90;1.00;;;;;;2281137;60;1269;-85
2021/08/14 01:39:54;0.00;0.00;0.62;0.00;0.00;0.62;;;;;24.00;1.00;;;;;;2285389;60;1156;-85
2021/08/14 01:42:21;27532.00;0.09;48.31;0.00;0.00;0.62;;;;;24.00;1.00;;;;;;2284735;60;1251;-84
2021/08/14 01:44:49;18352.00;0.06;32.42;0.00;0.00;0.62;;;;;24.10;1.00;;;;;;2284481;60;1489;-85
2021/08/14 01:47:16;225551.00;0.75;389.89;49366.00;0.16;86.09;;;;;24.10;1.00;;;;;;2281447;60;1167;-85
2021/08/14 01:49:43;72555.00;0.24;126.18;0.00;0.00;0.62;;;;;24.20;1.00;;;;;;2281066;60;1240;-85
2021/08/14 01:52:12;212696.00;0.71;367.77;79001.00;0.26;137.31;;;;;24.30;1.00;;;;;;2280496;60;1145;-85
2021/08/14 02:03:07;165326.00;0.55;286.22;65280.00;0.22;113.60;;;;;24.30;1.00;;;;;;2282526;60;1460;-84
2021/08/14 02:05:34;193982.00;0.65;335.56;70385.00;0.23;122.43;;;;;24.40;1.00;;;;;;2270204;61;1046;-85
2021/08/14 02:08:01;244462.00;0.81;422.43;65767.00;0.22;114.45;;;;;24.30;1.00;;;;;;2269530;61;1063;-85
2021/08/14 02:10:28;190287.00;0.63;329.20;68832.00;0.23;119.74;;;;;24.30;1.00;;;;;;2280921;61;1178;-85
2021/08/14 02:12:55;183575.00;0.61;317.65;70289.00;0.23;122.26;;;;;24.40;1.00;;;;;;2269992;61;2047;-85
2021/08/14 02:15:22;384579.00;1.28;663.30;132525.00;0.44;229.68;;;;;24.40;1.00;;;;;;2280879;61;1041;-85
2021/08/14 02:17:48;163411.00;0.54;282.92;74359.00;0.25;129.29;;;;;24.40;1.00;;;;;;2280837;61;1270;-85
2021/08/14 02:20:17;494317.00;1.65;852.04;197511.00;0.66;341.64;;;;;24.40;1.00;;;;;;2270089;61;1078;-85
2021/08/14 02:22:44;164438.00;0.55;284.69;66718.00;0.22;116.09;;;;;24.30;1.00;;;;;;2281217;61;1112;-84
2021/08/14 02:25:11;192578.00;0.64;333.15;66724.00;0.22;116.10;;;;;24.40;1.00;;;;;;2273624;61;1298;-85
2021/08/14 02:27:38;167372.00;0.56;289.74;66487.00;0.22;115.69;;;;;24.50;1.00;;;;;;2273845;61;1144;-85
2021/08/14 02:30:07;219679.00;0.73;379.79;71794.00;0.24;124.86;;;;;24.50;1.00;;;;;;2280095;61;1102;-85
2021/08/14 02:32:34;480676.00;1.60;828.56;180166.00;0.60;311.78;;;;;24.40;1.00;;;;;;2273368;61;1144;-84
2021/08/14 02:35:01;163618.00;0.55;283.27;65013.00;0.22;113.14;;;;;24.50;1.00;;;;;;2280673;61;2020;-85
2021/08/14 02:37:29;270208.00;0.90;466.70;69504.00;0.23;120.90;;;;;24.40;1.00;;;;;;2280688;61;1179;-85
2021/08/14 02:39:56;169703.00;0.57;293.76;67465.00;0.22;117.38;;;;;24.00;1.00;;;;;;2276716;61;1226;-85
2021/08/14 02:42:23;211052.00;0.70;364.95;68150.00;0.23;118.56;;;;;24.00;1.00;;;;;;2277025;61;1231;-84
2021/08/14 02:44:50;194178.00;0.65;335.90;61107.00;0.20;106.39;;;;;24.20;1.00;;;;;;2269753;61;1403;-85
2021/08/14 02:47:17;167686.00;0.56;290.28;67643.00;0.23;117.69;;;;;24.30;1.00;;;;;;2270307;61;1175;-85
2021/08/14 02:49:44;173548.00;0.58;300.38;68783.00;0.23;119.66;;;;;24.30;1.00;;;;;;2280521;61;1176;-85
2021/08/14 02:52:11;187597.00;0.63;324.57;99729.00;0.33;173.10;;;;;24.10;1.00;;;;;;2280894;61;1175;-84
2021/08/14 02:54:39;199909.00;0.67;345.77;70615.00;0.24;122.82;;;;;23.80;1.00;;;;;;2273313;61;2014;-86
2021/08/14 02:57:06;179503.00;0.60;310.63;70733.00;0.24;123.03;;;;;23.80;1.00;;;;;;2280566;61;1140;-85
2021/08/14 02:59:33;205826.00;0.69;355.95;67693.00;0.23;117.77;;;;;23.50;1.00;;;;;;2270202;61;1270;-85
2021/08/14 03:02:00;161461.00;0.54;279.56;60817.00;0.20;105.89;;;;;23.40;1.00;;;;;;2280822;61;1050;-85
2021/08/14 03:04:27;357211.00;1.19;616.26;76427.00;0.25;132.87;;;;;23.10;2.00;;;;;;2269930;61;1289;-85
2021/08/14 03:06:56;169996.00;0.57;294.26;70306.00;0.23;122.29;;;;;22.90;2.50;;;;;;2270443;61;1166;-86
2021/08/14 03:09:23;418178.00;1.39;721.06;175279.00;0.58;303.36;;;;;22.90;2.40;;;;;;2281061;61;1191;-86
2021/08/14 03:11:52;273914.00;0.91;473.07;111091.00;0.37;192.71;;;;;22.80;2.30;;;;;;2280831;61;1204;-85
2021/08/14 03:14:19;236620.00;0.79;408.94;65627.00;0.22;114.20;;;;;22.70;2.70;;;;;;2280901;61;1929;-86
2021/08/14 03:16:45;170482.00;0.57;295.10;75587.00;0.25;131.41;;;;;22.70;2.50;;;;;;2280479;61;1599;-85
2021/08/14 03:19:12;212667.00;0.71;367.73;73469.00;0.24;127.75;;;;;23.00;2.20;;;;;;2272327;61;1124;-85
2021/08/14 03:21:39;168291.00;0.56;291.32;72151.00;0.24;125.48;;;;;23.00;1.60;;;;;;2262319;61;1176;-85
2021/08/14 03:24:06;181217.00;0.60;313.59;68953.00;0.23;119.95;;;;;22.50;3.10;;;;;;2272299;61;1423;-85
2021/08/14 03:26:33;315853.00;1.05;545.17;90977.00;0.30;157.99;;;;;22.40;3.80;;;;;;2262215;61;1103;-86
2021/08/14 03:29:01;408070.00;1.36;703.68;91261.00;0.30;158.49;;;;;22.50;3.40;;;;;;2264332;61;1259;-86
2021/08/14 03:31:28;255693.00;0.85;441.74;91050.00;0.30;158.12;;;;;22.80;2.50;;;;;;2275659;61;1141;-85
2021/08/14 03:33:55;164297.00;0.55;284.44;69248.00;0.23;120.46;;;;;22.90;2.40;;;;;;2274710;61;1927;-85
2021/08/14 03:36:22;291713.00;0.97;503.67;78986.00;0.26;137.29;;;;;23.10;2.20;;;;;;2273447;61;1211;-85
2021/08/14 03:38:49;170290.00;0.57;294.77;73853.00;0.25;128.42;;;;;23.20;1.10;;;;;;2281347;61;1099;-85
2021/08/14 03:41:16;167085.00;0.56;289.25;71534.00;0.24;124.41;;;;;23.40;1.70;;;;;;2281323;61;1160;-86
2021/08/14 03:43:43;251668.00;0.84;434.82;69290.00;0.23;120.53;;;;;23.60;1.20;;;;;;2280976;60;1269;-86
2021/08/14 03:46:11;204004.00;0.68;352.82;67828.00;0.23;118.01;;;;;23.80;1.00;;;;;;2281016;61;1140;-85
2021/08/14 03:48:38;172147.00;0.57;297.96;70620.00;0.24;122.83;;;;;23.70;1.00;;;;;;2281329;61;1195;-86
2021/08/14 03:51:05;289120.00;0.96;499.22;98065.00;0.33;170.23;;;;;23.60;1.00;;;;;;2281343;61;1186;-85
2021/08/14 03:53:31;291018.00;0.97;502.48;83814.00;0.28;145.62;;;;;23.60;1.00;;;;;;2281062;61;2000;-85
2021/08/14 03:55:58;175992.00;0.59;304.59;70435.00;0.23;122.51;;;;;23.50;1.00;;;;;;2271099;61;1129;-86
2021/08/14 03:58:25;183075.00;0.61;316.78;72513.00;0.24;126.10;;;;;23.30;1.00;;;;;;2282246;61;1184;-86
2021/08/14 04:00:52;166233.00;0.55;287.78;66568.00;0.22;115.83;;;;;23.10;1.00;;;;;;2281511;61;1252;-85
2021/08/14 04:03:20;165080.00;0.55;285.79;60798.00;0.20;105.86;;;;;23.20;1.00;;;;;;2277187;61;1543;-85
2021/08/14 04:05:47;411883.00;1.37;710.23;121683.00;0.41;210.99;;;;;23.40;1.00;;;;;;2279957;61;1171;-85
2021/08/14 04:08:14;166709.00;0.56;288.60;69108.00;0.23;120.22;;;;;23.40;1.00;;;;;;2280454;61;1144;-85
2021/08/14 04:10:41;182488.00;0.61;315.77;72258.00;0.24;125.66;;;;;23.40;1.00;;;;;;2277801;61;1070;-86
2021/08/14 04:13:08;249998.00;0.83;431.95;76622.00;0.26;133.20;;;;;23.30;1.00;;;;;;2273752;61;1473;-86
2021/08/14 04:15:35;172745.00;0.58;298.99;70087.00;0.23;121.91;;;;;23.40;1.30;;;;;;2267893;61;2021;-85
2021/08/14 04:18:02;203377.00;0.68;351.74;70917.00;0.24;123.34;;;;;23.70;1.00;;;;;;2277537;61;1080;-86
2021/08/14 04:20:30;212512.00;0.71;367.46;68234.00;0.23;118.71;;;;;23.80;1.00;;;;;;2267725;61;1255;-86
2021/08/14 04:22:57;216319.00;0.72;374.01;71156.00;0.24;123.76;;;;;24.00;1.00;;;;;;2281794;60;1441;-86
2021/08/14 04:25:24;190367.00;0.63;329.34;75443.00;0.25;131.17;;;;;23.90;1.00;;;;;;2273174;61;1031;-85
2021/08/14 04:27:51;165541.00;0.55;286.59;71182.00;0.24;123.80;;;;;23.80;1.00;;;;;;2273017;61;1183;-86
2021/08/14 04:30:18;165579.00;0.55;286.65;61643.00;0.21;107.32;;;;;23.50;1.00;;;;;;2264440;61;1093;-86
2021/08/14 04:32:45;336103.00;1.12;579.98;103339.00;0.34;179.33;;;;;23.40;1.00;;;;;;2264483;61;1180;-86
2021/08/14 04:35:14;263378.00;0.88;454.96;64011.00;0.21;111.41;;;;;23.50;1.00;;;;;;2264326;61;2033;-86
2021/08/14 04:37:43;193995.00;0.65;335.59;61809.00;0.21;107.60;;;;;23.60;1.00;;;;;;2261318;61;1173;-86
2021/08/14 04:40:13;193304.00;0.64;334.40;68077.00;0.23;118.44;;;;;23.80;1.00;;;;;;2257506;61;1157;-86
2021/08/14 04:42:41;163676.00;0.55;283.37;67266.00;0.22;117.04;;;;;24.00;1.00;;;;;;2265625;61;1215;-86
2021/08/14 04:45:09;211599.00;0.71;365.89;66137.00;0.22;115.08;;;;;24.00;1.00;;;;;;2265851;61;1438;-86
2021/08/14 04:47:36;261074.00;0.87;451.00;61298.00;0.20;106.72;;;;;23.90;1.00;;;;;;2273829;61;1299;-86
2021/08/14 04:50:04;191502.00;0.64;331.29;74491.00;0.25;129.52;;;;;24.00;1.00;;;;;;2274190;61;1204;-86
2021/08/14 04:52:31;192493.00;0.64;333.00;74662.00;0.25;129.82;;;;;24.20;1.00;;;;;;2281789;61;1183;-86
2021/08/14 04:55:00;178126.00;0.59;308.26;78178.00;0.26;135.89;;;;;24.30;1.00;;;;;;2272094;61;1920;-86
2021/08/14 04:57:27;175280.00;0.58;303.36;67763.00;0.23;117.89;;;;;24.30;1.00;;;;;;2271547;61;1256;-85
2021/08/14 04:59:54;372662.00;1.24;642.81;71213.00;0.24;123.86;;;;;24.30;1.00;;;;;;2281813;61;1127;-86
2021/08/14 05:02:20;181466.00;0.60;314.01;70537.00;0.24;122.69;;;;;24.10;1.00;;;;;;2281663;61;1152;-85
2021/08/14 05:04:47;310310.00;1.03;535.64;86576.00;0.29;150.40;;;;;24.10;1.00;;;;;;2282111;61;1833;-85
2021/08/14 05:07:14;275939.00;0.92;476.56;85153.00;0.28;147.94;;;;;24.20;1.00;;;;;;2281543;61;1188;-85
2021/08/14 05:09:43;193472.00;0.64;334.69;63174.00;0.21;109.96;;;;;24.00;1.00;;;;;;2270560;61;1117;-85
2021/08/14 05:12:11;316523.00;1.06;546.32;65971.00;0.22;114.80;;;;;24.00;1.00;;;;;;2273696;61;1274;-85
2021/08/14 05:14:38;167524.00;0.56;290.00;67454.00;0.22;117.36;;;;;24.10;1.00;;;;;;2270853;61;1931;-84
2021/08/14 05:17:05;199801.00;0.67;345.58;67094.00;0.22;116.74;;;;;24.50;1.00;;;;;;2271952;61;1243;-85
2021/08/14 05:19:32;204940.00;0.68;354.43;67063.00;0.22;116.68;;;;;24.40;1.00;;;;;;2281572;61;1152;-85
2021/08/14 05:21:59;169614.00;0.57;293.60;54282.00;0.18;94.59;;;;;24.80;1.00;;;;;;2280772;60;1243;-85
2021/08/14 05:24:26;166646.00;0.56;288.49;61293.00;0.20;106.71;;;;;25.30;1.00;;;;;;2281758;60;1426;-86
2021/08/14 05:26:53;186020.00;0.62;321.86;62143.00;0.21;108.18;;;;;25.20;1.00;;;;;;2281760;61;1186;-85
2021/08/14 05:29:21;117285552.00;390.95;65352316.00;118876.00;0.40;206.14;;;;;24.90;1.00;;;;;;2278769;61;1363;-85
2021/08/14 05:31:48;189039.00;0.63;327.05;75123.00;0.25;130.61;;;;;24.50;1.00;;;;;;2270194;61;1283;-86
2021/08/14 05:34:15;169918.00;0.57;294.13;66970.00;0.22;116.52;;;;;24.30;1.00;;;;;;2261011;61;1991;-87
2021/08/14 05:36:42;353768.00;1.18;610.34;67589.00;0.23;117.59;;;;;24.10;1.00;;;;;;2257966;61;1241;-87
2021/08/14 05:39:09;172233.00;0.57;298.11;69184.00;0.23;120.35;;;;;24.60;1.00;;;;;;2259501;61;1166;-86
2021/08/14 05:41:39;365493.00;1.22;630.49;67025.00;0.22;116.62;;;;;25.90;1.00;;;;;;2259769;61;1086;-87
2021/08/14 05:44:07;169047.00;0.56;292.63;59983.00;0.20;104.45;;;;;27.10;1.00;;;;;;2259837;61;1298;-86
2021/08/14 05:46:35;168924.00;0.56;292.41;65705.00;0.22;114.34;;;;;28.50;1.00;;;;;;2259911;61;1068;-86
2021/08/14 05:49:02;217487.00;0.72;376.02;70704.00;0.24;122.98;;;;;29.60;1.00;;;;;;2261490;61;1082;-87
2021/08/14 05:51:29;202123.00;0.67;349.58;65838.00;0.22;114.57;;;;;30.60;1.00;;;;;;2272284;61;1071;-89
2021/08/14 05:53:56;169447.00;0.56;293.31;64340.00;0.21;111.98;;;;;30.90;1.00;;;;;;2276129;61;1427;-88
2021/08/14 05:56:23;167935.00;0.56;290.71;63335.00;0.21;110.24;;;;;31.00;1.00;;;;;;2283644;61;1971;-88
2021/08/14 05:58:49;325571.00;1.09;561.87;61357.00;0.20;106.82;;;;;31.00;1.00;;;;;;2283086;61;1086;-88
2021/08/14 06:01:16;219101.00;0.73;378.80;63030.00;0.21;109.71;;;;;31.50;1.00;;;;;;2283459;61;1146;-87
2021/08/14 06:03:45;216916.00;0.72;375.04;39275.00;0.13;68.63;;;;;32.40;1.00;;;;;;2283134;60;1387;-87
2021/08/14 06:06:11;276100.00;0.92;476.83;65406.00;0.22;113.82;;;;;33.00;1.00;;;;;;2283223;61;1095;-88
2021/08/14 06:08:38;230061.00;0.77;397.65;62179.00;0.21;108.24;;;;;32.90;1.00;;;;;;2282807;61;1097;-87
2021/08/14 06:11:05;341181.00;1.14;588.70;70511.00;0.24;122.64;;;;;33.20;1.00;;;;;;2283023;61;1092;-87
2021/08/14 06:13:32;270472.00;0.90;467.16;89972.00;0.30;156.26;;;;;33.40;1.00;;;;;;2282634;60;1390;-87
2021/08/14 06:15:59;169144.00;0.56;292.79;60899.00;0.20;106.03;;;;;33.60;1.00;;;;;;2282319;61;2000;-86
2021/08/14 06:18:26;177087.00;0.59;306.47;43395.00;0.14;75.76;;;;;34.10;1.00;;;;;;2282650;61;1144;-86
2021/08/14 06:20:54;172020.00;0.57;297.75;72544.00;0.24;126.16;;;;;34.70;1.00;;;;;;2281582;61;1159;-87
2021/08/14 06:23:21;159074.00;0.53;275.44;51779.00;0.17;90.26;;;;;35.10;1.00;;;;;;2281895;60;1306;-87
2021/08/14 06:25:48;342274.00;1.14;590.58;51906.00;0.17;90.48;;;;;35.20;1.00;;;;;;2281404;61;1152;-88
2021/08/14 06:28:15;172947.00;0.58;299.34;63033.00;0.21;109.72;;;;;35.40;1.00;;;;;;2281779;61;1167;-88
2021/08/14 06:30:42;177480.00;0.59;307.15;67419.00;0.22;117.30;;;;;36.10;1.00;;;;;;2282656;61;1141;-88
2021/08/14 06:33:09;229547.00;0.77;396.77;55753.00;0.19;97.13;;;;;36.50;1.00;;;;;;2282328;61;1347;-88
2021/08/14 06:35:36;511671.00;1.71;881.92;238662.00;0.80;412.45;;;;;36.50;1.00;;;;;;2282100;61;2009;-85
2021/08/14 06:38:05;248920.00;0.83;430.09;70327.00;0.23;122.33;;;;;36.40;1.00;;;;;;2282508;61;1178;-87
2021/08/14 06:40:32;298952.00;1.00;516.12;53833.00;0.18;93.81;;;;;36.20;1.00;;;;;;2282903;61;1711;-87
2021/08/14 06:42:58;286909.00;0.96;495.42;65188.00;0.22;113.44;;;;;36.30;1.00;;;;;;2281773;61;1303;-87
2021/08/14 06:45:25;382132.00;1.27;659.09;96493.00;0.32;167.52;;;;;35.80;1.00;;;;;;2281933;61;1135;-86
2021/08/14 06:47:52;302048.00;1.01;521.44;55672.00;0.19;96.99;;;;;35.20;1.00;;;;;;2282754;61;1242;-86
2021/08/14 06:50:19;178026.00;0.59;308.09;59357.00;0.20;103.37;;;;;34.20;1.00;;;;;;2282770;61;1204;-85
2021/08/14 06:52:46;506471.00;1.69;872.97;196070.00;0.65;339.16;;;;;34.70;1.00;;;;;;2282763;61;1128;-86
2021/08/14 06:55:15;403945.00;1.35;696.59;62680.00;0.21;109.11;;;;;34.60;1.00;;;;;;2282248;61;2002;-87
2021/08/14 06:57:42;257820.00;0.86;445.40;57897.00;0.19;100.84;;;;;35.80;1.00;;;;;;2282217;61;1123;-88
2021/08/14 07:00:09;167272.00;0.56;289.57;59541.00;0.20;103.68;;;;;36.10;1.00;;;;;;2282655;61;1147;-87
2021/08/14 07:02:36;200605.00;0.67;346.97;54000.00;0.18;94.10;;;;;36.40;1.00;;;;;;2282242;61;1260;-88
2021/08/14 07:05:05;170491.00;0.57;295.11;57753.00;0.19;100.59;;;;;36.00;1.00;;;;;;2284084;60;1262;-86
2021/08/14 07:07:32;292270.00;0.97;504.63;55240.00;0.18;96.25;;;;;36.00;1.00;;;;;;2284190;60;1016;-87
2021/08/14 07:09:59;345465.00;1.15;596.07;63445.00;0.21;110.43;;;;;36.40;1.00;;;;;;2282471;61;1172;-88
2021/08/14 07:12:27;205147.00;0.68;354.78;57574.00;0.19;100.28;;;;;36.50;1.00;;;;;;2282129;61;1192;-88
2021/08/14 07:14:55;298559.00;1.00;515.44;99968.00;0.33;173.52;;;;;36.70;1.00;;;;;;2282276;61;2007;-87
2021/08/14 07:17:22;335107.00;1.12;578.26;99571.00;0.33;172.83;;;;;36.80;1.00;;;;;;2281923;61;1131;-88
2021/08/14 07:19:49;159324.00;0.53;275.87;45308.00;0.15;79.07;;;;;37.00;1.00;;;;;;2282331;61;1115;-88
2021/08/14 07:22:16;240592.00;0.80;415.77;59623.00;0.20;103.83;;;;;37.30;1.00;;;;;;2282796;60;1183;-88
2021/08/14 07:24:43;169075.00;0.56;292.67;60250.00;0.20;104.91;;;;;38.10;1.00;;;;;;2284101;61;1394;-88
2021/08/14 07:27:10;167545.00;0.56;290.04;60327.00;0.20;105.04;;;;;38.80;1.00;;;;;;2284180;60;1133;-88
2021/08/14 07:29:38;191494.00;0.64;331.28;58453.00;0.19;101.80;;;;;39.30;1.00;;;;;;2283250;61;1176;-88
2021/08/14 07:32:06;300351.00;1.00;518.52;60102.00;0.20;104.65;;;;;39.10;1.00;;;;;;2282734;61;1171;-89
2021/08/14 07:34:33;198616.00;0.66;343.54;48499.00;0.16;84.59;;;;;39.70;1.00;;;;;;2282629;61;2040;-89
2021/08/14 07:36:59;311001.00;1.04;536.83;41590.00;0.14;72.64;;;;;39.50;1.00;;;;;;2280657;61;1211;-88
2021/08/14 07:39:26;193681.00;0.65;335.05;56499.00;0.19;98.42;;;;;39.60;1.00;;;;;;2280975;61;1123;-88
2021/08/14 07:41:53;184159.00;0.61;318.65;46711.00;0.16;81.50;;;;;39.00;1.00;;;;;;2281858;61;1138;-88
2021/08/14 07:44:20;244489.00;0.81;422.47;57075.00;0.19;99.42;;;;;38.90;1.00;;;;;;2281675;61;1371;-88
2021/08/14 07:46:48;170700.00;0.57;295.47;57743.00;0.19;100.57;;;;;39.00;1.00;;;;;;2281714;61;1187;-87
2021/08/14 07:49:15;0.00;0.00;0.62;0.00;0.00;0.62;;;;;38.80;1.00;;;;;;2281625;61;1092;-88
2021/08/14 07:51:42;74333.00;0.25;129.25;0.00;0.00;0.62;;;;;38.70;1.00;;;;;;2281409;61;2112;-89
2021/08/14 07:54:09;83631.00;0.28;145.31;14719.00;0.05;26.12;;;;;38.70;1.00;;;;;;2281178;60;1288;-89
2021/08/14 07:56:36;27110.00;0.09;47.58;0.00;0.00;0.62;;;;;38.90;1.00;;;;;;2282446;61;1926;-89
2021/08/14 07:59:03;76237.00;0.25;132.54;0.00;0.00;0.62;;;;;39.00;1.00;;;;;;2283201;61;1186;-89
2021/08/14 08:01:30;0.00;0.00;0.62;0.00;0.00;0.62;;;;;39.00;1.00;;;;;;2282950;61;1097;-88
2021/08/14 08:03:58;0.00;0.00;0.62;0.00;0.00;0.62;;;;;38.90;1.00;;;;;;2283247;60;1388;-89
2021/08/14 08:06:25;187604.00;0.63;324.58;16544.00;0.06;29.28;;;;;39.10;1.00;;;;;;2283569;60;1114;-88
2021/08/14 08:08:52;165409.00;0.55;286.36;100354.00;0.33;174.18;;;;;39.40;1.00;;;;;;2283938;61;1077;-89
2021/08/14 08:11:19;17003.00;0.06;30.08;0.00;0.00;0.62;;;;;39.10;1.00;;;;;;2282986;61;1218;-89
2021/08/14 08:13:46;58541.00;0.20;101.95;0.00;0.00;0.62;;;;;38.90;1.00;;;;;;2283049;61;1396;-88
2021/08/14 08:16:13;114514.00;0.38;198.62;0.00;0.00;0.62;;;;;38.80;1.00;;;;;;2282460;61;1998;-89
2021/08/14 08:18:40;19559.00;0.07;34.51;0.00;0.00;0.62;;;;;38.90;1.00;;;;;;2282372;61;1094;-89
2021/08/14 08:21:08;0.00;0.00;0.62;0.00;0.00;0.62;;;;;38.70;1.00;;;;;;2282954;61;1096;-89
2021/08/14 08:23:35;210624.00;0.70;364.21;15003.00;0.05;26.62;;;;;37.90;1.00;;;;;;2282345;60;1356;-88
2021/08/14 08:26:02;22009.00;0.07;38.75;0.00;0.00;0.62;;;;;38.10;1.00;;;;;;2283687;60;1178;-90
2021/08/14 08:28:29;0.00;0.00;0.62;0.00;0.00;0.62;;;;;38.10;1.00;;;;;;2281768;61;1227;-89
2021/08/14 08:30:56;0.00;0.00;0.62;0.00;0.00;0.62;;;;;38.50;1.00;;;;;;2283684;60;1120;-89
2021/08/14 08:33:22;35690.00;0.12;62.43;0.00;0.00;0.62;;;;;38.30;1.00;;;;;;2283784;60;1367;-88
2021/08/14 08:35:49;38503.00;0.13;67.30;0.00;0.00;0.62;;;;;38.70;1.00;;;;;;2283508;60;1915;-89
2021/08/14 08:38:20;59318.00;0.20;103.30;0.00;0.00;0.62;;;;;38.80;1.00;;;;;;2283627;60;1082;-86
2021/08/14 08:40:47;65132.00;0.22;113.35;0.00;0.00;0.62;;;;;38.50;1.00;;;;;;2283624;60;1122;-88
2021/08/14 08:43:14;0.00;0.00;0.62;0.00;0.00;0.62;;;;;38.80;1.00;;;;;;2282382;60;1262;-88
2021/08/14 08:45:41;0.00;0.00;0.62;0.00;0.00;0.62;;;;;38.90;1.00;;;;;;2283319;61;1155;-88
2021/08/14 08:48:09;0.00;0.00;0.62;0.00;0.00;0.62;;;;;38.10;1.00;;;;;;2283490;61;1076;-89
2021/08/14 08:50:37;19050.00;0.06;33.62;0.00;0.00;0.62;;;;;38.00;1.00;;;;;;2284058;61;1127;-88
2021/08/14 08:53:04;310869.00;1.04;536.60;60892.00;0.20;106.02;;;;;38.30;1.00;;;;;;2283881;60;1365;-86
2021/08/14 08:55:33;0.00;0.00;0.62;0.00;0.00;0.62;;;;;37.90;1.00;;;;;;2283010;61;2000;-88
2021/08/14 08:58:00;73202.00;0.24;127.29;0.00;0.00;0.62;;;;;37.80;1.00;;;;;;2283073;61;1187;-88
2021/08/14 09:00:27;73277.00;0.24;127.42;0.00;0.00;0.62;;;;;37.80;1.00;;;;;;2283370;61;1092;-89
2021/08/14 09:03:13;106172.00;0.35;184.22;0.00;0.00;0.62;;;;;38.00;1.00;;;;;;2283436;60;1411;-88
2021/08/14 09:05:48;78699.00;0.26;136.79;0.00;0.00;0.62;;;;;37.80;1.00;;;;;;2284202;61;1085;-87
2021/08/14 09:08:16;62025.00;0.21;107.98;0.00;0.00;0.62;;;;;37.60;1.00;;;;;;2283851;61;1157;-87
2021/08/14 09:10:44;132024.00;0.44;228.82;0.00;0.00;0.62;;;;;37.50;1.00;;;;;;2272827;61;1172;-87
2021/08/14 09:13:13;37745.00;0.13;65.99;0.00;0.00;0.62;;;;;37.00;1.00;;;;;;2276166;60;1345;-86
2021/08/14 09:15:40;0.00;0.00;0.62;0.00;0.00;0.62;;;;;36.40;1.00;;;;;;2276294;61;1986;-86
2021/08/14 09:18:10;0.00;0.00;0.62;0.00;0.00;0.62;;;;;35.60;1.00;;;;;;2276006;61;1089;-86
2021/08/14 09:20:52;0.00;0.00;0.62;0.00;0.00;0.62;;;;;35.70;1.00;;;;;;2272760;61;1173;-86
2021/08/14 09:23:19;0.00;0.00;0.62;0.00;0.00;0.62;;;;;35.30;1.00;;;;;;2282903;60;1413;-86
2021/08/14 09:25:49;0.00;0.00;0.62;0.00;0.00;0.62;;;;;35.30;1.00;;;;;;2282925;61;1152;-86
2021/08/14 09:28:18;92166.00;0.31;160.05;0.00;0.00;0.62;;;;;34.80;1.00;;;;;;2281410;61;1093;-86
2021/08/14 09:30:49;0.00;0.00;0.62;0.00;0.00;0.62;;;;;34.80;1.00;;;;;;2270754;61;1136;-86
2021/08/14 09:33:20;262165.00;0.87;452.87;39873.00;0.13;69.67;;;;;34.90;1.00;;;;;;2281793;60;1470;-86
2021/08/14 09:35:47;0.00;0.00;0.62;0.00;0.00;0.62;;;;;34.70;1.00;;;;;;2282952;61;1985;-86
2021/08/14 09:38:15;488173.00;1.63;841.46;93795.00;0.31;162.86;;;;;34.90;1.00;;;;;;2271552;61;1164;-87
2021/08/14 09:40:44;0.00;0.00;0.62;0.00;0.00;0.62;;;;;34.50;1.00;;;;;;2282584;61;1175;-87
2021/08/14 09:43:14;0.00;0.00;0.62;0.00;0.00;0.62;;;;;34.40;1.00;;;;;;2271385;60;1344;-87
2021/08/14 09:45:54;14355.00;0.05;25.49;0.00;0.00;0.62;;;;;34.20;1.00;;;;;;2272530;61;1207;-87
2021/08/14 09:48:24;152276.00;0.51;263.73;0.00;0.00;0.62;;;;;34.00;1.00;;;;;;2269662;61;1021;-86
2021/08/14 09:50:52;0.00;0.00;0.62;0.00;0.00;0.62;;;;;34.30;1.00;;;;;;2266806;61;1077;-87
2021/08/14 09:53:21;0.00;0.00;0.62;0.00;0.00;0.62;;;;;34.30;1.00;;;;;;2269087;61;1310;-86